createdAt,value
2018-12-04T00:01:45.570Z,9.50
2018-12-04T00:04:13.095Z,8.83
2018-12-04T00:06:40.630Z,9.73
2018-12-04T00:09:08.174Z,10.83
2018-12-04T00:11:35.695Z,11.70
2018-12-04T00:14:03.245Z,10.23
2018-12-04T00:16:31.341Z,14.20
2018-12-04T00:18:58.830Z,15.10
2018-12-04T00:21:26.323Z,15.80
2018-12-04T00:23:53.813Z,13.90
2018-12-04T00:26:21.295Z,13.93
2018-12-04T00:28:48.941Z,19.83
2018-12-04T00:31:16.499Z,13.13
2018-12-04T00:33:44.146Z,16.90
2018-12-04T00:36:11.665Z,14.43
2018-12-04T00:38:39.279Z,16.23
2018-12-04T00:41:06.829Z,19.53
2018-12-04T00:43:34.333Z,11.80
2018-12-04T00:46:02.502Z,17.17
2018-12-04T00:48:29.998Z,11.67
2018-12-04T00:50:57.597Z,12.37
2018-12-04T00:53:25.184Z,15.73
2018-12-04T00:55:52.689Z,6.40
2018-12-04T00:58:20.627Z,9.10
2018-12-04T01:00:48.118Z,13.90
2018-12-04T01:03:15.601Z,13.57
2018-12-04T01:05:48.351Z,12.67
2018-12-04T01:08:16.566Z,12.97
2018-12-04T01:10:44.061Z,15.43
2018-12-04T01:13:11.597Z,12.23
2018-12-04T01:15:39.085Z,11.17
2018-12-04T01:18:06.620Z,11.30
2018-12-04T01:20:34.137Z,11.73
2018-12-04T01:23:01.632Z,11.20
2018-12-04T01:25:29.164Z,10.17
2018-12-04T01:27:56.806Z,11.77
2018-12-04T01:30:24.320Z,14.47
2018-12-04T01:32:51.940Z,13.87
2018-12-04T01:35:19.450Z,14.60
2018-12-04T01:43:09.917Z,11.43
2018-12-04T01:45:37.436Z,12.80
2018-12-04T01:48:05.318Z,16.30
2018-12-04T01:50:32.867Z,15.87
2018-12-04T01:53:00.451Z,13.00
2018-12-04T01:55:28.103Z,10.50
2018-12-04T01:57:55.618Z,17.10
2018-12-04T02:00:23.125Z,16.70
2018-12-04T02:02:50.641Z,10.30
2018-12-04T02:05:18.209Z,14.87
2018-12-04T02:07:45.699Z,13.50
2018-12-04T02:10:13.232Z,13.70
2018-12-04T02:12:40.789Z,16.03
2018-12-04T02:15:08.470Z,14.87
2018-12-04T02:17:36.417Z,14.98
2018-12-04T02:20:04.121Z,19.03
2018-12-04T02:22:31.649Z,16.87
2018-12-04T02:24:59.176Z,12.17
2018-12-04T02:27:26.711Z,11.83
2018-12-04T02:29:54.236Z,8.83
2018-12-04T02:32:21.719Z,14.37
2018-12-04T02:34:49.336Z,13.90
2018-12-04T02:37:16.874Z,14.83
2018-12-04T02:39:44.393Z,12.63
2018-12-04T02:42:11.988Z,11.80
2018-12-04T02:44:39.496Z,10.70
2018-12-04T02:47:07.588Z,13.93
2018-12-04T02:49:35.158Z,11.13
2018-12-04T02:52:02.648Z,10.87
2018-12-04T02:54:30.156Z,11.83
2018-12-04T02:56:57.685Z,15.57
2018-12-04T02:59:25.169Z,11.13
2018-12-04T03:01:52.717Z,15.90
2018-12-04T03:04:20.283Z,16.60
2018-12-04T03:06:47.779Z,9.37
2018-12-04T03:09:15.297Z,14.07
2018-12-04T03:11:42.828Z,15.67
2018-12-04T03:14:10.346Z,12.33
2018-12-04T03:16:38.766Z,15.93
2018-12-04T03:19:06.284Z,16.17
2018-12-04T03:21:33.950Z,21.20
2018-12-04T03:24:01.460Z,15.63
2018-12-04T03:26:28.972Z,12.07
2018-12-04T03:28:56.488Z,14.60
2018-12-04T03:31:24.024Z,16.80
2018-12-04T03:33:51.536Z,14.00
2018-12-04T03:36:19.060Z,14.23
2018-12-04T03:38:46.634Z,16.07
2018-12-04T03:41:14.190Z,16.50
2018-12-04T03:43:41.800Z,14.27
2018-12-04T03:46:10.113Z,15.80
2018-12-04T03:48:37.955Z,12.07
2018-12-04T03:51:05.476Z,10.17
2018-12-04T03:53:32.978Z,13.33
2018-12-04T03:56:00.477Z,9.77
2018-12-04T03:58:28.026Z,12.53
2018-12-04T04:00:55.544Z,10.53
2018-12-04T04:03:23.094Z,13.20
2018-12-04T04:05:50.600Z,11.30
2018-12-04T04:08:18.176Z,11.17
2018-12-04T04:10:45.688Z,12.10
2018-12-04T04:13:13.232Z,8.27
2018-12-04T04:15:41.306Z,11.78
2018-12-04T04:18:08.818Z,12.17
2018-12-04T04:20:36.538Z,9.50
2018-12-04T04:23:04.063Z,11.03
2018-12-04T04:25:32.247Z,8.13
2018-12-04T04:27:59.761Z,11.83
2018-12-04T04:30:27.325Z,11.83
2018-12-04T04:32:54.842Z,13.80
2018-12-04T04:35:22.324Z,13.23
2018-12-04T04:37:49.965Z,9.77
2018-12-04T04:40:17.497Z,10.93
2018-12-04T04:42:44.991Z,11.13
2018-12-04T04:45:12.529Z,12.20
2018-12-04T04:47:40.100Z,13.17
2018-12-04T04:50:07.695Z,11.10
2018-12-04T04:52:35.179Z,12.67
2018-12-04T04:55:02.760Z,11.53
2018-12-04T04:57:30.295Z,14.33
2018-12-04T04:59:57.887Z,9.80
2018-12-04T05:02:25.450Z,11.67
2018-12-04T05:04:52.982Z,16.40
2018-12-04T05:07:20.470Z,12.47
2018-12-04T05:09:48.037Z,11.90
2018-12-04T05:12:15.583Z,21.47
2018-12-04T05:14:43.110Z,12.23
2018-12-04T05:17:10.683Z,15.30
2018-12-04T05:19:38.175Z,12.00
2018-12-04T05:22:05.714Z,10.10
2018-12-04T05:24:33.330Z,12.03
2018-12-04T05:27:01.044Z,15.13
2018-12-04T05:29:28.562Z,13.43
2018-12-04T05:31:56.098Z,12.13
2018-12-04T05:34:23.660Z,14.53
2018-12-04T05:36:51.178Z,13.63
2018-12-04T05:39:18.713Z,17.50
2018-12-04T05:41:46.237Z,17.57
2018-12-04T05:44:13.803Z,13.20
2018-12-04T05:46:41.344Z,15.23
2018-12-04T05:49:08.891Z,16.10
2018-12-04T05:51:36.399Z,17.27
2018-12-04T05:54:04.088Z,11.20
2018-12-04T05:56:31.644Z,16.90
2018-12-04T05:58:59.161Z,17.57
2018-12-04T06:01:26.748Z,17.10
2018-12-04T06:03:55.277Z,16.97
2018-12-04T06:06:22.877Z,16.13
2018-12-04T06:08:51.469Z,15.00
2018-12-04T06:11:18.955Z,16.33
2018-12-04T06:13:46.443Z,18.27
2018-12-04T06:16:14.009Z,15.17
2018-12-04T06:18:41.529Z,10.17
2018-12-04T06:21:09.502Z,14.50
2018-12-04T06:23:37.011Z,16.90
2018-12-04T06:26:04.574Z,20.27
2018-12-04T06:28:32.059Z,12.77
2018-12-04T06:30:59.665Z,13.73
2018-12-04T06:33:27.159Z,12.40
2018-12-04T06:35:54.655Z,11.97
2018-12-04T06:38:22.350Z,14.47
2018-12-04T06:40:50.063Z,14.67
2018-12-04T06:43:17.580Z,9.83
2018-12-04T06:45:45.111Z,14.13
2018-12-04T06:48:12.725Z,14.40
2018-12-04T06:50:40.205Z,10.80
2018-12-04T06:53:07.716Z,15.37
2018-12-04T06:55:35.207Z,14.63
2018-12-04T06:58:02.698Z,10.87
2018-12-04T07:00:30.229Z,12.90
2018-12-04T07:02:57.720Z,16.23
2018-12-04T07:05:25.325Z,13.13
2018-12-04T07:07:52.829Z,13.03
2018-12-04T07:10:21.798Z,13.70
2018-12-04T07:12:49.389Z,11.10
2018-12-04T07:15:16.909Z,11.23
2018-12-04T07:17:44.425Z,11.50
2018-12-04T07:20:11.965Z,11.20
2018-12-04T07:22:39.638Z,12.37
2018-12-04T07:25:07.191Z,10.23
2018-12-04T07:27:34.675Z,15.77
2018-12-04T07:30:02.372Z,11.23
2018-12-04T07:32:29.918Z,15.10
2018-12-04T07:34:57.457Z,14.50
2018-12-04T07:37:24.989Z,13.17
2018-12-04T07:39:52.503Z,13.60
2018-12-04T07:42:19.997Z,14.63
2018-12-04T07:44:50.426Z,18.93
2018-12-04T07:47:17.933Z,12.67
2018-12-04T07:49:45.447Z,12.23
2018-12-04T07:52:12.958Z,10.83
2018-12-04T07:54:40.481Z,16.13
2018-12-04T07:57:08.013Z,17.17
2018-12-04T07:59:35.533Z,21.27
2018-12-04T08:02:03.104Z,9.30
2018-12-04T08:04:30.594Z,14.43
2018-12-04T08:06:58.099Z,15.27
2018-12-04T08:09:25.581Z,12.03
2018-12-04T08:11:53.808Z,15.00
2018-12-04T08:14:21.355Z,10.90
2018-12-04T08:16:48.853Z,15.37
2018-12-04T08:19:16.426Z,15.27
2018-12-04T08:21:43.967Z,11.30
2018-12-04T08:24:11.585Z,14.20
2018-12-04T08:26:39.451Z,9.93
2018-12-04T08:29:07.100Z,10.20
2018-12-04T08:31:34.606Z,13.47
2018-12-04T08:34:02.163Z,13.70
2018-12-04T08:36:29.712Z,12.77
2018-12-04T08:38:57.226Z,11.37
2018-12-04T08:41:25.058Z,13.80
2018-12-04T08:43:52.567Z,12.17
2018-12-04T08:46:20.091Z,7.83
2018-12-04T08:48:47.599Z,15.47
2018-12-04T08:51:15.099Z,11.20
2018-12-04T08:53:42.615Z,11.97
2018-12-04T08:56:10.118Z,12.10
2018-12-04T08:58:37.737Z,11.57
2018-12-04T09:01:05.252Z,11.87
2018-12-04T09:03:32.749Z,13.53
2018-12-04T09:06:00.311Z,11.37
2018-12-04T09:08:27.909Z,15.83
2018-12-04T09:10:56.189Z,16.23
2018-12-04T09:13:23.773Z,11.93
2018-12-04T09:15:51.325Z,18.17
2018-12-04T09:18:18.861Z,14.80
2018-12-04T09:20:46.503Z,13.53
2018-12-04T09:23:14.189Z,18.23
2018-12-04T09:25:41.716Z,18.47
2018-12-04T09:28:09.362Z,17.13
2018-12-04T09:30:38.182Z,17.03
2018-12-04T09:33:06.505Z,15.80
2018-12-04T09:35:33.995Z,14.37
2018-12-04T09:38:01.533Z,9.77
2018-12-04T09:40:29.058Z,12.50
2018-12-04T09:42:57.506Z,8.53
2018-12-04T09:45:25.053Z,11.60
2018-12-04T09:47:52.571Z,6.77
2018-12-04T09:50:20.077Z,9.03
2018-12-04T09:52:47.609Z,10.17
2018-12-04T09:55:15.129Z,7.47
2018-12-04T09:57:42.659Z,8.80
2018-12-04T10:00:10.249Z,7.50
2018-12-04T10:02:37.738Z,9.00
2018-12-04T10:05:05.484Z,13.47
2018-12-04T10:07:33.034Z,8.63
2018-12-04T10:10:00.876Z,8.90
2018-12-04T10:12:28.704Z,8.50
2018-12-04T10:14:56.260Z,14.10
2018-12-04T10:17:26.826Z,9.63
2018-12-04T10:19:54.395Z,8.93
2018-12-04T10:22:21.952Z,8.30
2018-12-04T10:24:49.464Z,9.37
2018-12-04T10:27:16.963Z,9.47
2018-12-04T10:29:44.570Z,9.17
2018-12-04T10:32:12.213Z,6.53
2018-12-04T10:34:39.712Z,10.97
2018-12-04T10:37:07.274Z,7.57
2018-12-04T10:39:34.762Z,8.90
2018-12-04T10:42:02.297Z,9.53
2018-12-04T10:44:30.141Z,9.40
2018-12-04T10:46:57.664Z,10.63
2018-12-04T10:49:25.188Z,9.77
2018-12-04T10:51:52.693Z,8.90
2018-12-04T10:54:20.194Z,8.57
2018-12-04T10:56:47.702Z,8.67
2018-12-04T10:59:15.310Z,10.53
2018-12-04T11:01:48.522Z,13.60
2018-12-04T11:04:16.038Z,10.80
2018-12-04T11:06:43.602Z,14.93
2018-12-04T11:09:11.150Z,11.30
2018-12-04T11:11:38.766Z,13.73
2018-12-04T11:14:06.318Z,8.97
2018-12-04T11:16:33.836Z,9.20
2018-12-04T11:19:01.581Z,12.10
2018-12-04T11:21:29.104Z,11.23
2018-12-04T11:23:56.614Z,11.67
2018-12-04T11:26:24.142Z,10.70
2018-12-04T11:28:51.654Z,13.90
2018-12-04T11:31:19.230Z,10.00
2018-12-04T11:33:46.726Z,12.33
2018-12-04T11:36:14.218Z,15.07
2018-12-04T11:38:41.740Z,11.43
2018-12-04T11:41:09.248Z,11.10
2018-12-04T11:43:36.779Z,13.30
2018-12-04T11:46:04.300Z,11.13
2018-12-04T11:48:32.732Z,10.23
2018-12-04T11:51:00.413Z,10.10
2018-12-04T11:53:28.123Z,13.37
2018-12-04T11:55:55.814Z,13.93
2018-12-04T11:58:23.368Z,15.07
2018-12-04T12:00:51.534Z,13.87
2018-12-04T12:03:19.064Z,13.47
2018-12-04T12:05:46.608Z,13.43
2018-12-04T12:08:14.189Z,13.63
2018-12-04T12:10:41.745Z,16.73
2018-12-04T12:13:09.267Z,11.57
2018-12-04T12:15:36.871Z,13.53
2018-12-04T12:18:04.420Z,11.87
2018-12-04T12:20:31.913Z,13.00
2018-12-04T12:22:59.523Z,12.57
2018-12-04T12:25:27.063Z,14.20
2018-12-04T12:27:54.725Z,11.63
2018-12-04T12:30:22.344Z,12.97
2018-12-04T12:32:49.883Z,9.43
2018-12-04T12:35:17.468Z,10.90
2018-12-04T12:37:44.997Z,8.93
2018-12-04T12:40:12.498Z,12.93
2018-12-04T12:42:40.003Z,7.10
2018-12-04T12:45:07.825Z,11.00
2018-12-04T12:47:35.383Z,10.07
2018-12-04T12:50:03.159Z,11.23
2018-12-04T12:52:30.681Z,12.77
2018-12-04T12:54:58.189Z,8.63
2018-12-04T12:57:25.743Z,7.77
2018-12-04T12:59:53.339Z,9.27
2018-12-04T13:02:20.850Z,7.77
2018-12-04T13:04:48.371Z,9.67
2018-12-04T13:07:15.893Z,8.40
2018-12-04T13:09:43.462Z,9.23
2018-12-04T13:12:11.092Z,8.60
2018-12-04T13:14:38.677Z,9.30
2018-12-04T13:17:06.551Z,7.80
2018-12-04T13:19:34.066Z,8.67
2018-12-04T13:22:01.639Z,8.17
2018-12-04T13:24:29.134Z,11.40
2018-12-04T13:26:56.621Z,8.87
2018-12-04T13:29:24.169Z,6.67
2018-12-04T13:31:51.688Z,8.87
2018-12-04T13:34:19.210Z,8.83
2018-12-04T13:36:46.844Z,12.63
2018-12-04T13:39:14.342Z,11.67
2018-12-04T13:41:41.869Z,10.27
2018-12-04T13:44:09.515Z,13.47
2018-12-04T13:46:37.817Z,11.15
2018-12-04T13:49:05.350Z,14.00
2018-12-04T13:51:32.925Z,14.00
2018-12-04T13:54:00.546Z,9.63
2018-12-04T13:56:28.039Z,13.00
2018-12-04T13:58:55.615Z,9.28
2018-12-04T14:01:23.152Z,10.43
2018-12-04T14:03:50.783Z,10.47
2018-12-04T14:06:18.446Z,10.97
2018-12-04T14:08:46.092Z,11.90
2018-12-04T14:11:13.703Z,12.50
2018-12-04T14:13:41.255Z,11.87
2018-12-04T14:16:09.026Z,7.40
2018-12-04T14:18:36.544Z,13.83
2018-12-04T14:21:04.154Z,11.33
2018-12-04T14:23:31.675Z,10.93
2018-12-04T14:25:59.227Z,9.67
2018-12-04T14:28:26.762Z,9.90
2018-12-04T14:30:54.313Z,8.80
2018-12-04T14:33:21.820Z,11.20
2018-12-04T14:35:49.381Z,7.77
2018-12-04T14:38:16.927Z,9.47
2018-12-04T14:40:44.500Z,8.53
2018-12-04T14:43:12.125Z,9.07
2018-12-04T14:45:40.056Z,10.10
2018-12-04T14:48:07.657Z,10.30
2018-12-04T14:50:35.225Z,9.80
2018-12-04T14:53:02.722Z,10.33
2018-12-04T14:55:30.317Z,14.23
2018-12-04T14:57:57.899Z,10.10
2018-12-04T15:00:25.450Z,7.73
2018-12-04T15:02:53.113Z,10.13
2018-12-04T15:05:20.799Z,10.10
2018-12-04T15:07:48.395Z,9.57
2018-12-04T15:10:15.965Z,11.40
2018-12-04T15:12:43.614Z,14.83
2018-12-04T15:15:11.506Z,14.07
2018-12-04T15:17:39.067Z,11.10
2018-12-04T15:20:07.103Z,16.27
2018-12-04T15:22:34.718Z,8.90
2018-12-04T15:25:02.378Z,12.07
2018-12-04T15:27:30.060Z,15.63
2018-12-04T15:29:58.562Z,9.90
2018-12-04T15:32:26.255Z,7.33
2018-12-04T15:34:54.006Z,10.77
2018-12-04T15:37:21.583Z,15.50
2018-12-04T15:39:49.127Z,8.93
2018-12-04T15:42:16.778Z,10.23
2018-12-04T15:44:44.417Z,12.87
2018-12-04T15:47:12.917Z,14.70
2018-12-04T15:49:40.620Z,9.23
2018-12-04T15:52:08.145Z,10.63
2018-12-04T15:54:35.822Z,13.23
2018-12-04T15:57:03.528Z,8.97
2018-12-04T15:59:31.037Z,11.53
2018-12-04T16:01:58.556Z,14.70
2018-12-04T16:04:26.084Z,10.50
2018-12-04T16:06:53.636Z,13.73
2018-12-04T16:09:21.142Z,13.03
2018-12-04T16:11:48.654Z,8.93
2018-12-04T16:14:16.458Z,12.70
2018-12-04T16:16:44.027Z,14.67
2018-12-04T16:19:11.554Z,13.20
2018-12-04T16:21:39.107Z,14.07
2018-12-04T16:24:06.755Z,10.90
2018-12-04T16:26:34.284Z,9.50
2018-12-04T16:29:01.840Z,9.37
2018-12-04T16:31:29.377Z,12.87
2018-12-04T16:33:56.902Z,9.00
2018-12-04T16:36:24.430Z,13.90
2018-12-04T16:38:51.987Z,11.50
2018-12-04T16:41:19.554Z,12.90
2018-12-04T16:43:47.090Z,15.20
2018-12-04T16:46:15.363Z,10.85
2018-12-04T16:48:42.899Z,13.13
2018-12-04T16:51:10.716Z,10.53
2018-12-04T16:53:38.608Z,14.23
2018-12-04T16:56:06.136Z,13.50
2018-12-04T16:58:33.691Z,12.20
2018-12-04T17:01:01.292Z,12.73
2018-12-04T17:03:28.878Z,12.53
2018-12-04T17:05:57.051Z,13.53
2018-12-04T17:08:24.642Z,11.80
2018-12-04T17:10:52.304Z,14.77
2018-12-04T17:13:19.882Z,11.60
2018-12-04T17:15:47.468Z,11.30
2018-12-04T17:18:15.001Z,15.13
2018-12-04T17:20:42.594Z,15.33
2018-12-04T17:23:10.253Z,17.63
2018-12-04T17:25:37.772Z,11.97
2018-12-04T17:28:05.337Z,12.23
2018-12-04T17:30:33.782Z,17.20
2018-12-04T17:33:01.447Z,12.97
2018-12-04T17:35:28.999Z,18.13
2018-12-04T17:37:56.570Z,16.90
2018-12-04T17:40:24.082Z,13.63
2018-12-04T17:42:51.602Z,13.47
2018-12-04T17:45:19.153Z,16.97
2018-12-04T17:47:47.485Z,9.23
2018-12-04T17:50:15.094Z,8.03
2018-12-04T17:52:42.687Z,8.17
2018-12-04T17:55:10.237Z,10.97
2018-12-04T17:57:38.241Z,10.37
2018-12-04T18:00:07.704Z,14.43
2018-12-04T18:02:35.228Z,15.03
2018-12-04T18:05:02.767Z,14.80
2018-12-04T18:07:30.289Z,10.67
2018-12-04T18:09:57.844Z,11.97
2018-12-04T18:12:25.380Z,9.17
2018-12-04T18:14:53.004Z,9.93
2018-12-04T18:17:20.557Z,14.53
2018-12-04T18:19:48.749Z,10.43
2018-12-04T18:22:16.271Z,9.43
2018-12-04T18:24:43.797Z,14.90
2018-12-04T18:27:11.339Z,8.13
2018-12-04T18:29:38.997Z,12.47
2018-12-04T18:32:06.567Z,12.97
2018-12-04T18:34:34.192Z,7.47
2018-12-04T18:37:01.777Z,13.73
2018-12-04T18:39:29.335Z,10.33
2018-12-04T18:41:56.923Z,14.70
2018-12-04T18:44:24.559Z,7.40
2018-12-04T18:46:52.103Z,7.73
2018-12-04T18:49:20.007Z,9.33
2018-12-04T18:51:48.909Z,10.23
2018-12-04T18:54:16.428Z,10.83
2018-12-04T18:56:45.234Z,7.33
2018-12-04T18:59:12.775Z,10.20
2018-12-04T19:01:41.109Z,9.00
2018-12-04T19:04:09.447Z,6.63
2018-12-04T19:06:37.112Z,9.57
2018-12-04T19:09:06.660Z,7.07
2018-12-04T19:11:34.263Z,10.23
2018-12-04T19:14:01.829Z,10.17
2018-12-04T19:16:29.450Z,8.20
2018-12-04T19:18:57.029Z,9.53
2018-12-04T19:21:25.372Z,7.30
2018-12-04T19:23:53.540Z,9.17
2018-12-04T19:26:21.210Z,6.73
2018-12-04T19:28:51.737Z,8.97
2018-12-04T19:31:20.972Z,13.97
2018-12-04T19:33:48.509Z,7.83
2018-12-04T19:36:16.048Z,10.13
2018-12-04T19:38:43.591Z,8.70
2018-12-04T19:41:11.207Z,12.60
2018-12-04T19:43:39.457Z,9.23
2018-12-04T19:46:07.045Z,11.43
2018-12-04T19:48:34.582Z,8.43
2018-12-04T19:51:02.102Z,9.47
2018-12-04T19:53:29.878Z,11.87
2018-12-04T19:55:57.427Z,7.07
2018-12-04T19:58:26.140Z,8.40
2018-12-04T20:00:53.732Z,8.60
2018-12-04T20:03:22.198Z,7.77
2018-12-04T20:05:49.976Z,9.87
2018-12-04T20:08:17.532Z,7.43
2018-12-04T20:10:45.964Z,7.00
2018-12-04T20:13:13.550Z,8.13
2018-12-04T20:15:41.138Z,9.03
2018-12-04T20:18:09.242Z,8.43
2018-12-04T20:20:36.804Z,7.43
2018-12-04T20:23:06.906Z,6.60
2018-12-04T20:25:34.456Z,8.97
2018-12-04T20:28:04.871Z,6.00
2018-12-04T20:30:32.597Z,7.20
2018-12-04T20:33:00.159Z,7.07
2018-12-04T20:35:27.721Z,6.50
2018-12-04T20:37:55.263Z,8.23
2018-12-04T20:40:23.135Z,7.93
2018-12-04T20:42:50.702Z,4.00
2018-12-04T20:45:19.291Z,6.07
2018-12-04T20:47:47.750Z,4.37
2018-12-04T20:50:15.327Z,8.87
2018-12-04T20:52:42.957Z,4.87
2018-12-04T20:55:12.142Z,4.03
2018-12-04T20:57:39.791Z,9.10
2018-12-04T21:00:09.188Z,3.47
2018-12-04T21:02:36.889Z,4.80
2018-12-04T21:05:05.429Z,6.80
2018-12-04T21:07:32.997Z,5.63
2018-12-04T21:10:00.551Z,4.97
2018-12-04T21:12:28.116Z,7.47
2018-12-04T21:14:56.059Z,6.17
2018-12-04T21:17:23.589Z,7.07
2018-12-04T21:19:51.949Z,4.80
2018-12-04T21:22:19.535Z,3.03
2018-12-04T21:24:47.054Z,5.50
2018-12-04T21:27:20.188Z,7.67
2018-12-04T21:32:55.958Z,4.20
2018-12-04T21:35:30.184Z,3.80
2018-12-04T21:38:03.421Z,5.60
2018-12-04T21:40:36.594Z,5.67
2018-12-04T21:43:09.910Z,6.17
2018-12-04T21:45:44.163Z,5.57
2018-12-04T21:48:12.875Z,8.40
2018-12-04T21:50:40.394Z,5.43
2018-12-04T21:53:07.970Z,3.43
2018-12-04T21:55:35.609Z,6.77
2018-12-04T21:58:03.170Z,6.03
2018-12-04T22:00:30.777Z,6.20
2018-12-04T22:02:58.328Z,6.50
2018-12-04T22:05:25.857Z,7.57
2018-12-04T22:07:53.411Z,7.20
2018-12-04T22:10:20.919Z,8.30
2018-12-04T22:12:48.501Z,10.47
2018-12-04T22:15:16.051Z,5.57
2018-12-04T22:17:43.880Z,8.23
2018-12-04T22:20:11.423Z,6.40
2018-12-04T22:22:38.935Z,6.23
2018-12-04T22:25:07.881Z,5.40
2018-12-04T22:27:35.431Z,3.77
2018-12-04T22:30:03.759Z,4.13
2018-12-04T22:32:31.291Z,3.90
2018-12-04T22:34:58.885Z,2.60
2018-12-04T22:37:26.443Z,5.23
2018-12-04T22:39:53.975Z,5.53
2018-12-04T22:42:21.525Z,3.60
2018-12-04T22:44:49.076Z,6.83
2018-12-04T22:47:17.359Z,2.67
2018-12-04T22:49:44.871Z,3.97
2018-12-04T22:52:12.413Z,2.93
2018-12-04T22:54:39.917Z,2.40
2018-12-04T22:57:08.449Z,3.15
2018-12-04T22:59:35.933Z,4.00
2018-12-04T23:02:03.517Z,2.23
2018-12-04T23:04:31.033Z,3.07
2018-12-04T23:07:00.733Z,3.23
2018-12-04T23:09:28.579Z,7.00
2018-12-04T23:11:56.145Z,4.67
2018-12-04T23:14:23.883Z,5.87
2018-12-04T23:16:51.389Z,6.03
2018-12-04T23:19:19.099Z,7.13
2018-12-04T23:21:46.599Z,3.90
2018-12-04T23:24:14.144Z,6.50
2018-12-04T23:26:41.663Z,5.27
2018-12-04T23:29:09.878Z,6.27
2018-12-04T23:31:37.417Z,6.60
2018-12-04T23:34:04.997Z,6.97
2018-12-04T23:36:32.518Z,7.37
2018-12-04T23:39:00.050Z,4.43
2018-12-04T23:41:27.591Z,8.17
2018-12-04T23:43:55.094Z,7.87
2018-12-04T23:46:22.606Z,5.80
2018-12-04T23:48:50.129Z,10.43
2018-12-04T23:51:18.445Z,7.80
2018-12-04T23:53:45.934Z,8.43
2018-12-04T23:56:13.443Z,9.73
2018-12-04T23:58:41.043Z,9.93
